createdAt,value
2019-02-14T00:02:19.214Z,-1.91
2019-02-14T00:04:54.127Z,-1.73
2019-02-14T00:07:27.427Z,-1.66
2019-02-14T00:10:01.303Z,-1.75
2019-02-14T00:12:34.621Z,-1.86
2019-02-14T00:15:13.053Z,-1.86
2019-02-14T00:17:46.375Z,-1.96
2019-02-14T00:20:19.668Z,-2.06
2019-02-14T00:22:52.967Z,-2.13
2019-02-14T00:25:26.998Z,-2.11
2019-02-14T00:28:00.293Z,-1.83
2019-02-14T00:30:33.665Z,-1.93
2019-02-14T00:33:06.965Z,-2.00
2019-02-14T00:35:40.258Z,-1.86
2019-02-14T00:38:14.433Z,-1.82
2019-02-14T00:40:49.209Z,-1.96
2019-02-14T00:43:22.538Z,-1.96
2019-02-14T00:45:56.162Z,-1.94
2019-02-14T00:48:29.462Z,-1.96
2019-02-14T00:51:02.814Z,-2.01
2019-02-14T00:53:36.126Z,-2.03
2019-02-14T00:56:09.413Z,-2.08
2019-02-14T00:58:43.436Z,-2.07
2019-02-14T01:01:16.709Z,-2.15
2019-02-14T01:03:51.667Z,-2.25
2019-02-14T01:06:24.974Z,-2.33
2019-02-14T01:08:58.305Z,-2.19
2019-02-14T01:11:31.664Z,-2.19
2019-02-14T01:14:05.038Z,-2.18
2019-02-14T01:16:38.892Z,-2.22
2019-02-14T01:19:12.524Z,-2.23
2019-02-14T01:21:45.791Z,-2.19
2019-02-14T01:24:19.126Z,-2.28
2019-02-14T01:26:52.435Z,-2.28
2019-02-14T01:29:25.746Z,-2.34
2019-02-14T01:31:59.027Z,-2.45
2019-02-14T01:34:32.343Z,-2.52
2019-02-14T01:37:05.643Z,-2.55
2019-02-14T01:39:38.948Z,-2.68
2019-02-14T01:42:12.250Z,-2.41
2019-02-14T01:44:45.563Z,-2.44
2019-02-14T01:47:18.847Z,-2.45
2019-02-14T01:49:52.143Z,-2.53
2019-02-14T01:52:25.439Z,-2.61
2019-02-14T01:54:58.734Z,-2.74
2019-02-14T01:57:32.035Z,-2.73
2019-02-14T02:00:10.243Z,-2.49
2019-02-14T02:02:43.640Z,-2.53
2019-02-14T02:05:16.931Z,-2.47
2019-02-14T02:07:50.227Z,-2.45
2019-02-14T02:10:24.364Z,-2.49
2019-02-14T02:12:58.431Z,-2.66
2019-02-14T02:15:31.713Z,-2.79
2019-02-14T02:18:05.010Z,-2.72
2019-02-14T02:20:38.310Z,-2.55
2019-02-14T02:23:11.612Z,-2.61
2019-02-14T02:25:45.477Z,-2.58
2019-02-14T02:28:18.882Z,-2.70
2019-02-14T02:30:52.176Z,-2.82
2019-02-14T02:33:25.535Z,-2.80
2019-02-14T02:36:00.712Z,-2.90
2019-02-14T02:38:33.826Z,-2.53
2019-02-14T02:41:07.100Z,-2.44
2019-02-14T02:43:40.412Z,-2.65
2019-02-14T02:46:13.686Z,-2.64
2019-02-14T02:48:46.977Z,-2.55
2019-02-14T02:51:20.278Z,-2.56
2019-02-14T02:53:54.129Z,-2.61
2019-02-14T02:56:27.431Z,-2.61
2019-02-14T02:59:01.388Z,-2.63
2019-02-14T03:01:34.671Z,-2.66
2019-02-14T03:04:08.533Z,-2.62
2019-02-14T03:06:41.818Z,-2.62
2019-02-14T03:09:15.106Z,-2.60
2019-02-14T03:11:48.396Z,-2.63
2019-02-14T03:14:21.689Z,-2.64
2019-02-14T03:16:56.603Z,-2.64
2019-02-14T03:19:29.886Z,-2.64
2019-02-14T03:22:03.182Z,-2.70
2019-02-14T03:24:36.706Z,-2.77
2019-02-14T03:27:10.004Z,-2.89
2019-02-14T03:29:43.298Z,-2.96
2019-02-14T03:32:16.570Z,-3.10
2019-02-14T03:34:49.863Z,-3.07
2019-02-14T03:37:23.762Z,-2.96
2019-02-14T03:39:57.068Z,-2.90
2019-02-14T03:42:30.356Z,-2.98
2019-02-14T03:45:05.128Z,-2.91
2019-02-14T03:47:39.657Z,-2.89
2019-02-14T03:50:14.961Z,-2.87
2019-02-14T03:52:48.244Z,-2.78
2019-02-14T03:55:21.539Z,-2.67
2019-02-14T03:57:54.823Z,-2.61
2019-02-14T04:00:28.125Z,-2.33
2019-02-14T04:03:01.413Z,-2.48
2019-02-14T04:05:34.713Z,-2.69
2019-02-14T04:08:07.997Z,-2.72
2019-02-14T04:10:41.291Z,-2.67
2019-02-14T04:13:14.574Z,-2.81
2019-02-14T04:15:47.867Z,-2.85
2019-02-14T04:18:21.159Z,-2.93
2019-02-14T04:20:55.021Z,-2.97
2019-02-14T04:23:28.297Z,-2.96
2019-02-14T04:26:03.239Z,-2.99
2019-02-14T04:28:36.532Z,-2.95
2019-02-14T04:31:09.870Z,-2.99
2019-02-14T04:33:43.155Z,-2.94
2019-02-14T04:36:16.461Z,-2.96
2019-02-14T04:38:49.763Z,-2.99
2019-02-14T04:41:23.066Z,-3.04
2019-02-14T04:43:56.370Z,-3.09
2019-02-14T04:46:29.674Z,-3.22
2019-02-14T04:49:02.977Z,-3.28
2019-02-14T04:51:36.270Z,-3.27
2019-02-14T04:54:10.120Z,-3.33
2019-02-14T04:56:43.403Z,-3.38
2019-02-14T04:59:16.681Z,-3.46
2019-02-14T05:01:49.985Z,-3.49
2019-02-14T05:04:23.280Z,-3.48
2019-02-14T05:06:56.580Z,-3.45
2019-02-14T05:09:29.879Z,-3.47
2019-02-14T05:12:03.157Z,-3.51
2019-02-14T05:14:36.437Z,-3.56
2019-02-14T05:17:09.747Z,-3.46
2019-02-14T05:19:43.037Z,-3.51
2019-02-14T05:22:16.324Z,-3.60
2019-02-14T05:24:51.341Z,-3.67
2019-02-14T05:27:24.625Z,-3.43
2019-02-14T05:29:57.934Z,-3.33
2019-02-14T05:32:31.214Z,-3.30
2019-02-14T05:35:05.441Z,-3.36
2019-02-14T05:37:38.721Z,-3.10
2019-02-14T05:40:12.184Z,-3.05
2019-02-14T05:42:45.464Z,-3.20
2019-02-14T05:45:18.781Z,-3.15
2019-02-14T05:47:52.054Z,-3.27
2019-02-14T05:50:25.365Z,-3.36
2019-02-14T05:52:58.662Z,-3.35
2019-02-14T05:55:32.033Z,-3.30
2019-02-14T05:58:05.332Z,-3.33
2019-02-14T06:00:38.610Z,-3.37
2019-02-14T06:03:11.912Z,-3.44
2019-02-14T06:05:45.212Z,-3.47
2019-02-14T06:08:18.499Z,-3.47
2019-02-14T06:10:51.825Z,-3.55
2019-02-14T06:13:25.100Z,-3.31
2019-02-14T06:15:58.421Z,-3.26
2019-02-14T06:18:31.690Z,-3.30
2019-02-14T06:21:04.983Z,-3.28
2019-02-14T06:23:38.262Z,-3.22
2019-02-14T06:26:11.581Z,-3.19
2019-02-14T06:28:44.862Z,-3.22
2019-02-14T06:31:18.167Z,-3.27
2019-02-14T06:33:51.459Z,-3.36
2019-02-14T06:36:25.853Z,-3.41
2019-02-14T06:38:59.170Z,-3.47
2019-02-14T06:41:33.562Z,-3.47
2019-02-14T06:44:06.835Z,-3.58
2019-02-14T06:46:40.147Z,-3.66
2019-02-14T06:49:13.428Z,-3.61
2019-02-14T06:51:46.743Z,-3.55
2019-02-14T06:54:20.025Z,-3.48
2019-02-14T06:56:55.641Z,-3.55
2019-02-14T06:59:28.935Z,-3.56
2019-02-14T07:02:02.251Z,-3.49
2019-02-14T07:04:35.539Z,-3.34
2019-02-14T07:07:08.837Z,-3.21
2019-02-14T07:09:42.125Z,-3.35
2019-02-14T07:12:15.439Z,-3.33
2019-02-14T07:14:49.732Z,-3.08
2019-02-14T07:17:23.030Z,-3.25
2019-02-14T07:19:56.314Z,-3.34
2019-02-14T07:22:31.151Z,-3.30
2019-02-14T07:25:06.458Z,-3.17
2019-02-14T07:27:39.761Z,-3.09
2019-02-14T07:30:19.489Z,-3.00
2019-02-14T07:32:52.780Z,-2.99
2019-02-14T07:35:26.093Z,-2.93
2019-02-14T07:37:59.498Z,-2.87
2019-02-14T07:40:32.740Z,-2.75
2019-02-14T07:43:06.036Z,-2.69
2019-02-14T07:45:39.327Z,-2.70
2019-02-14T07:48:12.619Z,-2.70
2019-02-14T07:50:45.890Z,-2.63
2019-02-14T07:53:19.195Z,-2.56
2019-02-14T07:55:52.481Z,-2.56
2019-02-14T07:58:25.798Z,-2.54
2019-02-14T08:00:59.073Z,-2.50
2019-02-14T08:03:32.399Z,-2.35
2019-02-14T08:06:05.697Z,-2.30
2019-02-14T08:08:39.007Z,-2.35
2019-02-14T08:11:12.293Z,-2.33
2019-02-14T08:13:45.587Z,-2.24
2019-02-14T08:16:18.880Z,-2.02
2019-02-14T08:18:53.153Z,-1.78
2019-02-14T08:21:26.426Z,-1.78
2019-02-14T08:23:59.718Z,-1.70
2019-02-14T08:26:33.011Z,-1.55
2019-02-14T08:29:06.357Z,-1.40
2019-02-14T08:31:39.646Z,-1.26
2019-02-14T08:34:13.029Z,-1.07
2019-02-14T08:36:46.296Z,-1.05
2019-02-14T08:39:20.635Z,-0.88
2019-02-14T08:41:53.929Z,-0.69
2019-02-14T08:44:27.228Z,-0.56
2019-02-14T08:47:00.519Z,-0.40
2019-02-14T08:49:35.212Z,-0.11
2019-02-14T08:52:08.596Z,-0.07
2019-02-14T08:54:41.877Z,0.00
2019-02-14T08:57:16.787Z,0.17
2019-02-14T08:59:50.083Z,0.32
2019-02-14T09:02:23.386Z,0.44
2019-02-14T09:04:56.668Z,0.40
2019-02-14T09:07:30.058Z,0.37
2019-02-14T09:10:03.616Z,0.66
2019-02-14T09:12:36.918Z,0.85
2019-02-14T09:15:12.375Z,0.87
2019-02-14T09:17:45.694Z,0.84
2019-02-14T09:20:20.424Z,0.96
2019-02-14T09:22:53.718Z,1.17
2019-02-14T09:25:27.000Z,1.22
2019-02-14T09:28:03.291Z,1.21
2019-02-14T09:30:36.593Z,1.10
2019-02-14T09:33:09.854Z,1.10
2019-02-14T09:35:43.157Z,1.23
2019-02-14T09:38:16.242Z,1.26
2019-02-14T09:40:49.541Z,1.38
2019-02-14T09:43:29.564Z,1.30
2019-02-14T09:45:58.795Z,1.36
2019-02-14T09:48:32.140Z,1.51
2019-02-14T09:51:05.411Z,1.76
2019-02-14T09:53:38.700Z,1.90
2019-02-14T09:56:12.023Z,1.72
2019-02-14T09:58:45.333Z,1.90
2019-02-14T10:01:18.640Z,1.95
2019-02-14T10:03:53.195Z,2.27
2019-02-14T10:06:26.484Z,2.28
2019-02-14T10:09:00.803Z,2.26
2019-02-14T10:11:34.342Z,2.48
2019-02-14T10:14:07.616Z,2.69
2019-02-14T10:16:40.918Z,2.92
2019-02-14T10:19:14.353Z,2.88
2019-02-14T10:21:47.652Z,2.94
2019-02-14T10:24:20.936Z,3.17
2019-02-14T10:26:54.623Z,3.28
2019-02-14T10:29:27.897Z,3.40
2019-02-14T10:32:01.207Z,3.38
2019-02-14T10:34:34.477Z,3.45
2019-02-14T10:37:07.805Z,3.30
2019-02-14T10:39:41.095Z,3.61
2019-02-14T10:42:14.441Z,3.73
2019-02-14T10:44:47.713Z,3.63
2019-02-14T10:47:21.008Z,3.68
2019-02-14T10:49:55.341Z,4.00
2019-02-14T10:52:28.614Z,4.42
2019-02-14T10:55:01.939Z,4.28
2019-02-14T10:57:35.228Z,4.27
2019-02-14T11:00:20.537Z,4.78
2019-02-14T11:02:53.893Z,4.95
2019-02-14T11:05:27.737Z,5.23
2019-02-14T11:08:01.031Z,4.94
2019-02-14T11:10:34.322Z,5.49
2019-02-14T11:13:07.615Z,7.62
2019-02-14T11:15:40.918Z,8.77
2019-02-14T11:18:14.200Z,9.65
2019-02-14T11:20:47.501Z,9.74
2019-02-14T11:23:21.790Z,9.76
2019-02-14T11:25:55.082Z,8.73
2019-02-14T11:28:28.362Z,8.20
2019-02-14T11:31:01.649Z,7.52
2019-02-14T11:33:34.917Z,9.17
2019-02-14T11:36:08.212Z,9.17
2019-02-14T11:38:42.530Z,8.49
2019-02-14T11:41:15.820Z,9.13
2019-02-14T11:43:49.135Z,8.05
2019-02-14T11:46:22.406Z,8.17
2019-02-14T11:48:55.689Z,9.02
2019-02-14T11:51:28.971Z,10.18
2019-02-14T11:54:02.262Z,11.62
2019-02-14T11:56:35.567Z,11.57
2019-02-14T11:59:08.843Z,11.80
2019-02-14T12:01:42.146Z,12.54
2019-02-14T12:04:15.429Z,12.56
2019-02-14T12:06:48.822Z,9.98
2019-02-14T12:09:22.191Z,11.42
2019-02-14T12:11:55.498Z,12.08
2019-02-14T12:14:28.790Z,12.94
2019-02-14T12:17:02.095Z,11.43
2019-02-14T12:19:35.367Z,12.66
2019-02-14T12:22:08.678Z,12.78
2019-02-14T12:24:41.958Z,11.43
2019-02-14T12:27:15.262Z,13.27
2019-02-14T12:29:48.548Z,13.38
2019-02-14T12:32:21.946Z,13.60
2019-02-14T12:34:55.225Z,13.99
2019-02-14T12:37:28.519Z,14.39
2019-02-14T12:40:01.822Z,15.18
2019-02-14T12:42:35.112Z,12.55
2019-02-14T12:45:25.752Z,11.39
2019-02-14T12:47:58.280Z,10.83
2019-02-14T12:50:31.564Z,9.36
2019-02-14T12:53:04.876Z,10.23
2019-02-14T12:55:38.215Z,9.95
2019-02-14T12:58:11.521Z,11.39
2019-02-14T13:00:44.814Z,11.28
2019-02-14T13:03:18.130Z,11.46
2019-02-14T13:05:51.473Z,11.59
2019-02-14T13:08:26.026Z,11.18
2019-02-14T13:10:59.296Z,10.53
2019-02-14T13:13:32.604Z,9.40
2019-02-14T13:16:05.930Z,8.98
2019-02-14T13:18:39.238Z,9.05
2019-02-14T13:21:12.527Z,9.80
2019-02-14T13:23:46.411Z,10.05
2019-02-14T13:26:19.714Z,10.27
2019-02-14T13:28:53.025Z,10.27
2019-02-14T13:31:32.078Z,10.55
2019-02-14T13:34:01.385Z,9.84
2019-02-14T13:36:34.634Z,9.09
2019-02-14T13:39:08.019Z,9.25
2019-02-14T13:41:41.276Z,9.19
2019-02-14T13:44:14.779Z,9.23
2019-02-14T13:46:48.521Z,8.56
2019-02-14T13:49:21.836Z,8.98
2019-02-14T13:51:55.091Z,10.48
2019-02-14T13:54:28.973Z,11.35
2019-02-14T13:57:02.334Z,11.22
2019-02-14T13:59:35.649Z,10.48
2019-02-14T14:02:10.574Z,11.22
2019-02-14T14:04:44.875Z,13.45
2019-02-14T14:07:18.426Z,13.38
2019-02-14T14:09:51.685Z,12.91
2019-02-14T14:12:24.826Z,13.80
2019-02-14T14:14:58.242Z,11.23
2019-02-14T14:17:31.530Z,11.25
2019-02-14T14:20:06.477Z,13.65
2019-02-14T14:22:40.946Z,13.72
2019-02-14T14:25:14.274Z,13.69
2019-02-14T14:27:47.566Z,13.44
2019-02-14T14:30:20.864Z,12.40
2019-02-14T14:32:54.141Z,12.93
2019-02-14T14:35:27.442Z,12.85
2019-02-14T14:38:00.729Z,13.21
2019-02-14T14:40:34.045Z,12.57
2019-02-14T14:43:18.020Z,13.13
2019-02-14T14:46:01.816Z,14.02
2019-02-14T14:48:36.745Z,14.92
2019-02-14T14:51:10.132Z,15.71
2019-02-14T14:53:43.420Z,16.05
2019-02-14T14:56:16.721Z,14.74
2019-02-14T14:58:50.176Z,14.44
2019-02-14T15:01:23.471Z,11.65
2019-02-14T15:03:56.766Z,11.62
2019-02-14T15:06:30.111Z,11.94
2019-02-14T15:09:03.772Z,11.11
2019-02-14T15:11:37.090Z,11.07
2019-02-14T15:14:11.711Z,11.64
2019-02-14T15:16:45.109Z,11.28
2019-02-14T15:19:18.399Z,10.88
2019-02-14T15:21:51.734Z,10.70
2019-02-14T15:24:25.017Z,10.79
2019-02-14T15:26:58.346Z,10.93
2019-02-14T15:29:31.654Z,10.29
2019-02-14T15:32:04.988Z,9.65
2019-02-14T15:34:38.271Z,9.35
2019-02-14T15:37:12.714Z,8.96
2019-02-14T15:39:46.589Z,8.74
2019-02-14T15:42:19.916Z,8.55
2019-02-14T15:44:53.204Z,8.46
2019-02-14T15:47:26.500Z,8.21
2019-02-14T15:49:59.774Z,7.98
2019-02-14T15:52:33.168Z,7.91
2019-02-14T15:55:07.678Z,7.75
2019-02-14T15:57:42.911Z,7.64
2019-02-14T16:00:16.051Z,7.59
2019-02-14T16:02:50.442Z,7.47
2019-02-14T16:05:24.423Z,7.37
2019-02-14T16:08:00.307Z,7.27
2019-02-14T16:10:33.602Z,7.16
2019-02-14T16:13:08.083Z,7.05
2019-02-14T16:15:42.024Z,6.85
2019-02-14T16:18:15.340Z,6.78
2019-02-14T16:20:48.612Z,6.73
2019-02-14T16:23:21.943Z,6.60
2019-02-14T16:25:55.238Z,6.68
2019-02-14T16:28:28.553Z,6.71
2019-02-14T16:31:01.863Z,6.62
2019-02-14T16:33:35.212Z,6.52
2019-02-14T16:36:08.483Z,6.16
2019-02-14T16:38:41.789Z,5.87
2019-02-14T16:41:15.101Z,5.93
2019-02-14T16:43:48.375Z,5.61
2019-02-14T16:46:21.696Z,5.55
2019-02-14T16:48:54.984Z,5.54
2019-02-14T16:51:28.316Z,5.48
2019-02-14T16:54:01.610Z,5.35
2019-02-14T16:56:34.961Z,5.16
2019-02-14T16:59:08.249Z,5.14
2019-02-14T17:01:41.556Z,5.36
2019-02-14T17:04:15.687Z,5.18
2019-02-14T17:06:48.994Z,4.96
2019-02-14T17:09:22.294Z,4.85
2019-02-14T17:11:55.585Z,4.71
2019-02-14T17:14:28.870Z,4.65
2019-02-14T17:17:02.172Z,4.64
2019-02-14T17:19:35.998Z,4.49
2019-02-14T17:22:10.105Z,4.44
2019-02-14T17:24:43.396Z,4.61
2019-02-14T17:27:16.721Z,4.43
2019-02-14T17:29:51.648Z,4.19
2019-02-14T17:32:24.953Z,4.05
2019-02-14T17:34:58.238Z,4.11
2019-02-14T17:37:31.591Z,4.30
2019-02-14T17:40:07.918Z,4.07
2019-02-14T17:42:41.225Z,3.95
2019-02-14T17:45:14.515Z,3.77
2019-02-14T17:47:47.833Z,3.62
2019-02-14T17:50:21.128Z,3.28
2019-02-14T17:52:54.445Z,3.34
2019-02-14T17:55:27.794Z,3.39
2019-02-14T17:58:01.090Z,3.29
2019-02-14T18:00:34.398Z,3.26
2019-02-14T18:03:07.716Z,3.12
2019-02-14T18:05:40.998Z,3.03
2019-02-14T18:08:14.367Z,2.94
2019-02-14T18:10:54.768Z,2.84
2019-02-14T18:13:22.680Z,2.69
2019-02-14T18:15:55.985Z,2.61
2019-02-14T18:18:29.309Z,2.48
2019-02-14T18:21:02.618Z,2.37
2019-02-14T18:23:35.951Z,2.26
2019-02-14T18:26:09.347Z,2.28
2019-02-14T18:28:42.661Z,2.15
2019-02-14T18:31:15.935Z,2.07
2019-02-14T18:33:49.272Z,2.05
2019-02-14T18:36:22.599Z,2.15
2019-02-14T18:38:55.922Z,2.35
2019-02-14T18:41:29.251Z,2.23
2019-02-14T18:44:02.587Z,2.27
2019-02-14T18:46:35.892Z,2.10
2019-02-14T18:49:09.232Z,1.90
2019-02-14T18:51:42.563Z,1.84
2019-02-14T18:54:15.884Z,1.69
2019-02-14T18:56:49.232Z,1.67
2019-02-14T18:59:22.547Z,1.51
2019-02-14T19:01:56.587Z,1.46
2019-02-14T19:04:30.008Z,1.33
2019-02-14T19:07:03.480Z,1.43
2019-02-14T19:09:36.824Z,1.37
2019-02-14T19:12:11.041Z,1.26
2019-02-14T19:14:44.388Z,1.14
2019-02-14T19:17:17.691Z,1.03
2019-02-14T19:19:51.023Z,0.91
2019-02-14T19:22:24.331Z,0.78
2019-02-14T19:24:57.673Z,0.80
2019-02-14T19:27:31.075Z,0.69
2019-02-14T19:30:06.774Z,0.57
2019-02-14T19:32:40.136Z,0.49
2019-02-14T19:35:22.423Z,0.52
2019-02-14T19:37:48.513Z,0.65
2019-02-14T19:40:21.832Z,0.58
2019-02-14T19:42:55.190Z,0.52
2019-02-14T19:45:36.407Z,0.52
2019-02-14T19:48:03.576Z,0.50
2019-02-14T19:50:36.961Z,0.59
2019-02-14T19:53:10.344Z,0.60
2019-02-14T19:55:43.639Z,0.47
2019-02-14T19:58:16.970Z,0.48
2019-02-14T20:00:50.419Z,0.52
2019-02-14T20:03:23.709Z,0.48
2019-02-14T20:05:57.043Z,0.40
2019-02-14T20:08:30.376Z,0.42
2019-02-14T20:11:03.763Z,0.34
2019-02-14T20:13:37.063Z,0.35
2019-02-14T20:16:10.400Z,0.31
2019-02-14T20:18:43.719Z,0.24
2019-02-14T20:21:17.013Z,0.15
2019-02-14T20:23:50.324Z,0.20
2019-02-14T20:26:23.609Z,0.45
2019-02-14T20:28:56.930Z,0.30
2019-02-14T20:31:31.906Z,0.28
2019-02-14T20:34:05.223Z,0.18
2019-02-14T20:36:38.520Z,0.07
2019-02-14T20:39:11.828Z,-0.04
2019-02-14T20:41:46.549Z,-0.07
2019-02-14T20:44:19.941Z,-0.09
2019-02-14T20:46:53.208Z,-0.08
2019-02-14T20:49:27.903Z,-0.07
2019-02-14T20:52:01.178Z,-0.22
2019-02-14T20:54:34.569Z,-0.30
2019-02-14T20:57:08.326Z,-0.37
2019-02-14T20:59:41.735Z,-0.32
2019-02-14T21:02:15.076Z,-0.35
2019-02-14T21:04:48.436Z,-0.21
2019-02-14T21:07:21.662Z,-0.30
2019-02-14T21:09:55.973Z,-0.27
2019-02-14T21:12:29.261Z,-0.20
2019-02-14T21:15:02.632Z,-0.30
2019-02-14T21:17:35.949Z,-0.45
2019-02-14T21:20:11.601Z,-0.46
2019-02-14T21:22:44.915Z,-0.25
2019-02-14T21:25:22.394Z,-0.10
2019-02-14T21:27:54.506Z,-0.29
2019-02-14T21:30:27.829Z,-0.31
2019-02-14T21:33:01.167Z,-0.38
2019-02-14T21:35:34.475Z,-0.41
2019-02-14T21:38:07.805Z,-0.15
2019-02-14T21:40:41.368Z,0.03
2019-02-14T21:43:14.719Z,-0.14
2019-02-14T21:45:48.042Z,-0.26
2019-02-14T21:48:21.347Z,-0.45
2019-02-14T21:50:54.671Z,-0.55
2019-02-14T21:53:27.971Z,-0.65
2019-02-14T21:56:01.319Z,-0.77
2019-02-14T21:58:34.626Z,-0.79
2019-02-14T22:01:08.347Z,-0.82
2019-02-14T22:03:41.798Z,-0.86
2019-02-14T22:06:15.109Z,-0.69
2019-02-14T22:08:48.443Z,-0.64
2019-02-14T22:11:21.767Z,-0.70
2019-02-14T22:13:55.086Z,-0.62
2019-02-14T22:16:28.407Z,-0.51
2019-02-14T22:19:01.714Z,-0.63
2019-02-14T22:21:35.063Z,-0.57
2019-02-14T22:24:08.375Z,-0.73
2019-02-14T22:26:41.702Z,-0.76
2019-02-14T22:29:15.066Z,-0.77
2019-02-14T22:31:48.365Z,-0.69
2019-02-14T22:34:21.695Z,-0.55
2019-02-14T22:36:54.986Z,-0.53
2019-02-14T22:39:28.391Z,-0.48
2019-02-14T22:42:01.698Z,-0.67
2019-02-14T22:44:35.024Z,-0.60
2019-02-14T22:47:08.307Z,-0.48
2019-02-14T22:49:41.676Z,-0.29
2019-02-14T22:52:14.981Z,-0.36
2019-02-14T22:54:48.307Z,-0.45
2019-02-14T22:57:21.603Z,-0.57
2019-02-14T22:59:54.940Z,-0.49
2019-02-14T23:02:28.299Z,-0.61
2019-02-14T23:05:01.683Z,-0.72
2019-02-14T23:07:34.998Z,-0.58
2019-02-14T23:10:08.416Z,-0.58
2019-02-14T23:12:41.726Z,-0.71
2019-02-14T23:15:15.443Z,-0.63
2019-02-14T23:17:48.761Z,-0.62
2019-02-14T23:20:22.154Z,-0.71
2019-02-14T23:22:55.453Z,-0.81
2019-02-14T23:25:28.772Z,-0.89
2019-02-14T23:28:02.069Z,-0.91
2019-02-14T23:30:35.382Z,-0.91
2019-02-14T23:33:08.709Z,-0.84
2019-02-14T23:35:42.058Z,-0.81
2019-02-14T23:38:15.351Z,-0.82
2019-02-14T23:40:48.682Z,-0.81
2019-02-14T23:43:22.016Z,-0.88
2019-02-14T23:45:55.325Z,-0.96
2019-02-14T23:48:28.624Z,-1.11
2019-02-14T23:51:03.550Z,-1.28
2019-02-14T23:53:37.031Z,-1.37
2019-02-14T23:56:10.364Z,-1.47
2019-02-14T23:58:43.656Z,-1.51
